createdAt,value
2023-03-19T00:00:39.355Z,29.00
2023-03-19T00:03:06.461Z,30.70
2023-03-19T00:05:33.649Z,29.15
2023-03-19T00:08:00.821Z,29.70
2023-03-19T00:10:27.812Z,28.65
2023-03-19T00:12:55.636Z,28.83
2023-03-19T00:15:22.836Z,29.50
2023-03-19T00:17:49.750Z,28.38
2023-03-19T00:20:18.282Z,29.58
2023-03-19T00:22:45.607Z,30.02
2023-03-19T00:25:12.775Z,27.55
2023-03-19T00:27:39.786Z,28.40
2023-03-19T00:30:08.061Z,28.38
2023-03-19T00:32:36.657Z,27.85
2023-03-19T00:35:06.402Z,28.55
2023-03-19T00:37:34.443Z,28.10
2023-03-19T00:40:01.816Z,27.63
2023-03-19T00:42:28.773Z,29.92
2023-03-19T00:44:55.952Z,28.45
2023-03-19T00:47:24.994Z,29.25
2023-03-19T00:49:51.878Z,28.30
2023-03-19T00:52:18.841Z,26.55
2023-03-19T00:54:46.163Z,26.58
2023-03-19T00:57:13.181Z,27.25
2023-03-19T00:59:41.347Z,26.45
2023-03-19T01:02:08.336Z,27.40
2023-03-19T01:04:35.535Z,25.45
2023-03-19T01:07:02.491Z,26.25
2023-03-19T01:09:29.858Z,25.13
2023-03-19T01:11:57.021Z,26.13
2023-03-19T01:14:23.995Z,25.75
2023-03-19T01:16:51.195Z,25.15
2023-03-19T01:19:18.124Z,25.33
2023-03-19T01:21:46.603Z,24.70
2023-03-19T01:24:17.568Z,23.80
2023-03-19T01:26:47.820Z,23.35
2023-03-19T01:29:32.168Z,23.67
2023-03-19T01:32:07.555Z,24.02
2023-03-19T01:34:54.156Z,22.23
2023-03-19T01:37:21.387Z,23.00
2023-03-19T01:39:48.852Z,23.45
2023-03-19T01:42:16.834Z,22.02
2023-03-19T01:45:37.165Z,22.20
2023-03-19T01:48:40.744Z,22.75
2023-03-19T01:51:16.234Z,22.60
2023-03-19T01:53:58.931Z,21.13
2023-03-19T01:56:36.892Z,21.67
2023-03-19T01:59:37.954Z,20.95
2023-03-19T02:02:44.833Z,21.15
2023-03-19T02:08:11.448Z,21.52
2023-03-19T02:10:40.614Z,22.25
2023-03-19T02:13:07.602Z,20.52
2023-03-19T02:15:34.541Z,20.20
2023-03-19T02:18:01.629Z,21.42
2023-03-19T02:20:48.324Z,22.80
2023-03-19T02:23:30.372Z,21.33
2023-03-19T02:26:11.619Z,22.65
2023-03-19T02:28:42.492Z,21.80
2023-03-19T02:31:11.093Z,22.58
2023-03-19T02:33:38.413Z,21.23
2023-03-19T02:36:10.325Z,21.27
2023-03-19T02:38:40.891Z,20.65
2023-03-19T02:41:09.013Z,21.77
2023-03-19T02:43:38.873Z,20.67
2023-03-19T02:46:09.714Z,21.38
2023-03-19T02:48:37.652Z,20.55
2023-03-19T02:51:05.667Z,20.17
2023-03-19T02:53:34.746Z,19.77
2023-03-19T02:56:01.828Z,20.15
2023-03-19T02:58:28.854Z,20.45
2023-03-19T03:00:55.920Z,20.60
2023-03-19T03:03:23.001Z,21.88
2023-03-19T03:05:50.000Z,19.42
2023-03-19T03:08:16.916Z,18.50
2023-03-19T03:10:43.922Z,19.35
2023-03-19T03:13:12.272Z,19.85
2023-03-19T03:15:39.443Z,19.73
2023-03-19T03:18:06.441Z,20.67
2023-03-19T03:20:33.619Z,19.45
2023-03-19T03:23:00.976Z,20.40
2023-03-19T03:25:28.311Z,19.52
2023-03-19T03:27:55.435Z,22.02
2023-03-19T03:30:22.881Z,20.15
2023-03-19T03:32:50.084Z,19.75
2023-03-19T03:35:21.895Z,21.25
2023-03-19T03:37:50.413Z,20.23
2023-03-19T03:40:17.675Z,19.50
2023-03-19T03:42:44.992Z,19.67
2023-03-19T03:45:13.088Z,20.92
2023-03-19T03:47:42.224Z,20.02
2023-03-19T03:50:11.102Z,19.80
2023-03-19T03:52:39.370Z,19.67
2023-03-19T03:55:07.548Z,20.10
2023-03-19T03:57:34.887Z,20.52
2023-03-19T04:00:01.918Z,19.95
2023-03-19T04:02:29.073Z,20.95
2023-03-19T04:04:56.291Z,20.50
2023-03-19T04:07:23.258Z,19.52
2023-03-19T04:12:26.291Z,19.55
2023-03-19T04:14:53.502Z,20.67
2023-03-19T04:17:20.523Z,18.48
2023-03-19T04:19:47.457Z,20.63
2023-03-19T04:22:14.609Z,20.73
2023-03-19T04:24:41.893Z,20.50
2023-03-19T04:27:09.094Z,19.80
2023-03-19T04:29:37.890Z,19.33
2023-03-19T04:32:05.558Z,19.33
2023-03-19T04:34:32.625Z,20.52
2023-03-19T04:36:59.627Z,19.05
2023-03-19T04:39:27.279Z,20.23
2023-03-19T04:41:54.218Z,19.50
2023-03-19T04:44:39.098Z,19.05
2023-03-19T04:47:06.582Z,19.67
2023-03-19T04:49:47.088Z,19.00
2023-03-19T04:52:14.666Z,19.45
2023-03-19T04:54:41.644Z,19.15
2023-03-19T04:57:09.151Z,19.95
2023-03-19T04:59:38.685Z,18.63
2023-03-19T05:02:06.160Z,18.33
2023-03-19T05:04:35.388Z,15.75
2023-03-19T05:07:07.433Z,17.73
2023-03-19T05:09:35.842Z,21.17
2023-03-19T05:12:02.760Z,21.73
2023-03-19T05:14:35.381Z,22.67
2023-03-19T05:17:11.278Z,23.83
2023-03-19T05:19:53.899Z,26.23
2023-03-19T05:22:21.059Z,25.77
2023-03-19T05:24:48.090Z,25.98
2023-03-19T05:27:15.237Z,26.38
2023-03-19T05:30:04.478Z,26.70
2023-03-19T05:32:58.863Z,27.10
2023-03-19T05:35:39.339Z,27.88
2023-03-19T05:38:13.976Z,28.48
2023-03-19T05:40:43.943Z,29.20
2023-03-19T05:43:24.258Z,27.52
2023-03-19T05:45:52.806Z,29.17
2023-03-19T05:48:23.584Z,27.92
2023-03-19T05:50:52.636Z,29.70
2023-03-19T05:53:23.261Z,29.33
2023-03-19T05:56:13.234Z,28.23
2023-03-19T05:58:52.989Z,27.90
2023-03-19T06:01:25.664Z,28.33
2023-03-19T06:03:52.880Z,27.98
2023-03-19T06:06:19.844Z,27.52
2023-03-19T06:08:51.709Z,26.67
2023-03-19T06:11:40.578Z,27.00
2023-03-19T06:14:26.639Z,24.58
2023-03-19T06:17:13.773Z,26.55
2023-03-19T06:19:40.845Z,25.95
2023-03-19T06:22:08.984Z,26.90
2023-03-19T06:24:36.943Z,27.90
2023-03-19T06:27:04.303Z,26.92
2023-03-19T06:29:31.723Z,26.23
2023-03-19T06:32:07.935Z,26.38
2023-03-19T06:34:41.655Z,27.33
2023-03-19T06:37:09.077Z,27.08
2023-03-19T06:39:36.046Z,27.15
2023-03-19T06:42:03.143Z,27.88
2023-03-19T06:44:30.124Z,26.38
2023-03-19T06:46:57.239Z,28.80
2023-03-19T06:49:24.349Z,28.23
2023-03-19T06:51:51.591Z,27.40
2023-03-19T06:54:18.628Z,26.77
2023-03-19T06:56:46.236Z,27.00
2023-03-19T06:59:13.220Z,26.48
2023-03-19T07:01:43.220Z,27.65
2023-03-19T07:04:11.286Z,28.63
2023-03-19T07:06:38.382Z,29.52
2023-03-19T07:09:05.552Z,29.10
2023-03-19T07:11:35.637Z,26.85
2023-03-19T07:14:03.634Z,29.08
2023-03-19T07:16:30.951Z,27.00
2023-03-19T07:18:58.041Z,25.42
2023-03-19T07:21:26.892Z,25.20
2023-03-19T07:23:54.025Z,24.88
2023-03-19T07:26:21.085Z,24.05
2023-03-19T07:28:48.491Z,26.65
2023-03-19T07:31:16.948Z,25.27
2023-03-19T07:33:44.069Z,22.92
2023-03-19T07:36:11.324Z,24.17
2023-03-19T07:38:38.205Z,23.95
2023-03-19T07:41:05.309Z,24.42
2023-03-19T07:43:32.680Z,24.73
2023-03-19T07:46:00.839Z,24.90
2023-03-19T07:48:28.058Z,24.20
2023-03-19T07:50:55.184Z,24.02
2023-03-19T07:53:22.196Z,25.02
2023-03-19T07:55:49.246Z,25.67
2023-03-19T07:58:17.074Z,23.60
2023-03-19T08:00:45.217Z,25.17
2023-03-19T08:03:12.629Z,25.40
2023-03-19T08:05:39.815Z,21.73
2023-03-19T08:08:06.777Z,25.45
2023-03-19T08:10:36.266Z,24.50
2023-03-19T08:13:05.190Z,21.80
2023-03-19T08:15:32.590Z,25.30
2023-03-19T08:18:04.954Z,26.05
2023-03-19T08:20:33.262Z,22.92
2023-03-19T08:23:00.367Z,23.08
2023-03-19T08:25:27.604Z,23.45
2023-03-19T08:27:54.942Z,23.02
2023-03-19T08:30:22.583Z,22.80
2023-03-19T08:32:50.575Z,22.35
2023-03-19T08:35:17.644Z,25.02
2023-03-19T08:37:44.567Z,23.58
2023-03-19T08:40:12.003Z,22.88
2023-03-19T08:42:44.438Z,21.17
2023-03-19T08:45:13.853Z,22.25
2023-03-19T08:47:41.283Z,22.13
2023-03-19T08:50:08.904Z,23.80
2023-03-19T08:52:36.122Z,23.33
2023-03-19T08:55:03.712Z,22.65
2023-03-19T08:57:32.645Z,23.58
2023-03-19T09:00:00.198Z,23.58
2023-03-19T09:02:27.448Z,22.08
2023-03-19T09:04:54.603Z,22.30
2023-03-19T09:07:21.556Z,22.20
2023-03-19T09:09:49.420Z,22.77
2023-03-19T09:12:17.636Z,21.52
2023-03-19T09:14:44.884Z,21.90
2023-03-19T09:17:13.466Z,21.77
2023-03-19T09:19:40.886Z,22.48
2023-03-19T09:22:07.823Z,22.40
2023-03-19T09:24:34.825Z,21.85
2023-03-19T10:15:28.535Z,15.13
2023-03-19T10:18:11.262Z,16.42
2023-03-19T10:20:56.705Z,15.60
2023-03-19T10:23:27.591Z,15.52
2023-03-19T10:25:58.580Z,16.75
2023-03-19T10:31:21.273Z,17.60
2023-03-19T16:22:00.733Z,21.55
2023-03-19T16:24:34.136Z,21.55
2023-03-19T16:27:07.064Z,21.60
2023-03-19T16:29:46.010Z,21.08
2023-03-19T16:32:15.714Z,20.33
2023-03-19T16:34:50.152Z,20.92
2023-03-19T16:37:31.977Z,20.52
2023-03-19T16:40:29.053Z,19.88
2023-03-19T16:43:07.272Z,21.95
2023-03-19T16:45:35.281Z,26.77
2023-03-19T16:48:06.185Z,26.88
2023-03-19T16:50:41.188Z,21.92
2023-03-19T16:53:24.566Z,22.00
2023-03-19T16:55:53.247Z,20.77
2023-03-19T16:58:26.157Z,21.02
2023-03-19T17:00:53.354Z,23.13
2023-03-19T17:03:20.297Z,20.45
2023-03-19T17:05:48.466Z,19.77
2023-03-19T17:08:16.033Z,20.88
2023-03-19T17:10:48.547Z,21.90
2023-03-19T17:13:28.221Z,20.73
2023-03-19T17:15:59.563Z,19.10
2023-03-19T17:18:33.578Z,19.80
2023-03-19T17:21:03.588Z,19.60
2023-03-19T17:23:32.435Z,20.05
2023-03-19T17:25:59.818Z,20.27
2023-03-19T17:28:26.814Z,20.90
2023-03-19T17:30:53.780Z,22.27
2023-03-19T17:33:24.361Z,20.92
2023-03-19T17:35:53.086Z,21.70
2023-03-19T17:38:21.819Z,20.17
2023-03-19T17:40:48.905Z,21.70
2023-03-19T17:43:15.864Z,21.75
2023-03-19T17:45:46.695Z,21.30
2023-03-19T17:48:21.390Z,23.08
2023-03-19T17:50:49.831Z,21.27
2023-03-19T17:53:18.657Z,21.48
2023-03-19T17:55:46.760Z,22.58
2023-03-19T17:58:19.528Z,21.85
2023-03-19T18:00:48.293Z,20.77
2023-03-19T18:03:18.619Z,20.52
2023-03-19T18:05:45.757Z,21.60
2023-03-19T18:08:17.999Z,20.25
2023-03-19T18:10:45.867Z,20.33
2023-03-19T18:13:12.803Z,20.90
2023-03-19T18:15:42.566Z,21.58
2023-03-19T18:18:21.428Z,21.13
2023-03-19T18:20:49.100Z,21.77
2023-03-19T18:23:16.819Z,20.85
2023-03-19T18:25:45.051Z,21.45
2023-03-19T18:28:12.086Z,22.85
2023-03-19T18:30:40.654Z,23.48
2023-03-19T18:33:13.753Z,23.10
2023-03-19T18:35:44.985Z,24.10
2023-03-19T18:38:18.289Z,24.17
2023-03-19T18:40:45.934Z,25.02
2023-03-19T18:43:15.944Z,25.08
2023-03-19T18:45:45.706Z,24.48
2023-03-19T18:48:38.748Z,25.02
2023-03-19T18:51:06.068Z,24.15
2023-03-19T18:53:33.098Z,22.67
2023-03-19T18:56:02.306Z,23.15
2023-03-19T18:58:29.392Z,26.00
2023-03-19T19:00:57.752Z,24.52
2023-03-19T19:03:29.531Z,25.02
2023-03-19T19:05:57.388Z,24.15
2023-03-19T19:08:26.709Z,23.33
2023-03-19T19:10:58.826Z,25.05
2023-03-19T19:13:29.351Z,24.15
2023-03-19T19:15:56.302Z,25.23
2023-03-19T19:18:30.581Z,25.05
2023-03-19T19:20:58.590Z,25.70
2023-03-19T19:23:30.196Z,24.95
2023-03-19T19:25:57.278Z,27.02
2023-03-19T19:28:30.693Z,28.20
2023-03-19T19:30:59.944Z,27.27
2023-03-19T19:33:31.732Z,27.95
2023-03-19T19:35:58.968Z,27.48
2023-03-19T19:38:26.024Z,27.63
2023-03-19T19:40:56.263Z,27.05
2023-03-19T19:43:25.619Z,25.02
2023-03-19T19:45:54.600Z,26.00
2023-03-19T19:48:27.409Z,25.98
2023-03-19T19:50:56.129Z,25.08
2023-03-19T19:53:29.504Z,25.10
2023-03-19T19:55:56.640Z,24.55
2023-03-19T19:58:33.098Z,24.85
2023-03-19T20:01:04.199Z,23.65
2023-03-19T20:03:33.309Z,25.90
2023-03-19T20:06:01.534Z,27.88
2023-03-19T20:08:28.883Z,24.33
2023-03-19T20:10:56.720Z,23.13
2023-03-19T20:13:29.105Z,23.95
2023-03-19T20:15:58.209Z,24.33
2023-03-19T20:18:30.947Z,24.98
2023-03-19T20:20:59.332Z,25.27
2023-03-19T20:23:26.640Z,26.50
2023-03-19T20:25:54.948Z,26.20
2023-03-19T20:28:32.523Z,24.55
2023-03-19T20:31:00.807Z,29.48
2023-03-19T20:33:28.797Z,26.42
2023-03-19T20:35:55.856Z,25.85
2023-03-19T20:38:23.045Z,23.70
2023-03-19T20:40:53.942Z,24.45
2023-03-19T20:43:30.865Z,26.05
2023-03-19T20:46:01.887Z,26.52
2023-03-19T20:48:29.111Z,24.85
2023-03-19T20:50:56.185Z,23.70
2023-03-19T20:53:23.249Z,25.33
2023-03-19T20:55:51.003Z,24.45
2023-03-19T20:58:28.334Z,24.35
2023-03-19T21:00:57.898Z,25.42
2023-03-19T21:03:27.264Z,26.55
2023-03-19T21:06:02.050Z,25.67
2023-03-19T21:08:34.270Z,25.95
2023-03-19T21:11:02.341Z,25.25
2023-03-19T21:13:29.906Z,25.00
2023-03-19T21:15:56.944Z,25.48
2023-03-19T21:18:24.181Z,25.50
2023-03-19T21:20:54.759Z,25.60
2023-03-19T21:23:31.879Z,24.45
2023-03-19T21:26:03.960Z,26.77
2023-03-19T21:28:49.463Z,25.95
2023-03-19T21:31:18.995Z,27.25
2023-03-19T21:33:47.622Z,29.23
2023-03-19T21:36:15.128Z,29.48
2023-03-19T21:38:42.533Z,27.40
2023-03-19T21:41:21.821Z,28.75
2023-03-19T21:43:53.984Z,30.45
2023-03-19T21:46:28.452Z,32.05
2023-03-19T21:48:56.848Z,29.10
2023-03-19T21:51:25.202Z,29.67
2023-03-19T21:53:52.399Z,27.50
2023-03-19T21:56:19.299Z,28.58
2023-03-19T21:58:46.799Z,26.13
2023-03-19T22:01:23.672Z,27.25
2023-03-19T22:03:55.019Z,27.13
2023-03-19T22:06:22.601Z,26.92
2023-03-19T22:08:51.049Z,26.73
2023-03-19T22:11:20.609Z,25.58
2023-03-19T22:13:48.446Z,27.10
2023-03-19T22:16:24.034Z,28.38
2023-03-19T22:18:52.194Z,27.05
2023-03-19T22:21:21.999Z,26.85
2023-03-19T22:23:49.454Z,29.90
2023-03-19T22:26:25.660Z,30.00
2023-03-19T22:28:53.121Z,28.45
2023-03-19T22:31:20.181Z,28.00
2023-03-19T22:33:48.745Z,29.70
2023-03-19T22:36:15.875Z,31.10
2023-03-19T22:38:44.948Z,34.42
2023-03-19T22:41:21.963Z,35.00
2023-03-19T22:43:49.443Z,31.77
2023-03-19T22:46:19.698Z,28.65
2023-03-19T22:48:50.173Z,29.08
2023-03-19T22:51:19.998Z,29.25
2023-03-19T22:53:47.659Z,28.50
2023-03-19T22:56:16.145Z,29.30
2023-03-19T22:58:43.843Z,30.00
2023-03-19T23:01:29.502Z,27.60
2023-03-19T23:03:57.149Z,29.08
2023-03-19T23:06:30.598Z,28.30
2023-03-19T23:11:25.606Z,28.00
2023-03-19T23:13:54.706Z,26.70
2023-03-19T23:16:24.717Z,26.20
2023-03-19T23:18:52.275Z,26.90
2023-03-19T23:21:20.929Z,29.40
2023-03-19T23:23:47.915Z,27.63
2023-03-19T23:26:25.294Z,28.45
2023-03-19T23:28:53.032Z,27.80
2023-03-19T23:31:20.113Z,30.02
2023-03-19T23:33:47.304Z,26.77
2023-03-19T23:36:14.403Z,28.90
2023-03-19T23:38:41.596Z,26.55
2023-03-19T23:41:24.249Z,28.30
2023-03-19T23:43:52.813Z,27.48
2023-03-19T23:46:21.144Z,32.08
2023-03-19T23:48:48.306Z,27.55
2023-03-19T23:51:16.145Z,28.80
2023-03-19T23:53:43.852Z,29.35
2023-03-19T23:56:26.046Z,29.98
2023-03-19T23:58:55.699Z,30.50
